Time;durP1;ratioP1;P1;durP2;ratioP2;P2;SDS_P1;SDS_P2;PMS_P1;PMS_P2;Temp;Humidity;BMP_temperature;BMP_pressure;BME280_temperature;BME280_humidity;BME280_pressure;Samples;Min_cycle;Max_cycle;Signal;HPM_P1;HPM_P2
2023/04/10 00:04:55;;;;;;;21.83;12.30;;;4.70;99.90;;;;;;5001171;28;20106;-81
2023/04/10 00:17:53;;;;;;;28.67;16.05;;;4.90;99.90;;;;;;5004176;28;20061;-82
2023/04/10 00:20:20;;;;;;;25.58;14.65;;;4.90;99.90;;;;;;5005434;28;20130;-81
2023/04/10 00:23:00;;;;;;;24.63;14.30;;;5.20;99.90;;;;;;4987287;28;20041;-81
2023/04/10 00:29:48;;;;;;;22.92;13.25;;;5.00;99.90;;;;;;5003795;28;20033;-81
2023/04/10 00:52:47;;;;;;;19.80;12.02;;;5.00;99.90;;;;;;5003657;28;20030;-82
2023/04/10 00:55:14;;;;;;;22.45;12.38;;;5.00;99.90;;;;;;5003736;28;20034;-81
2023/04/10 01:04:46;;;;;;;17.60;11.05;;;5.10;99.90;;;;;;5004570;28;20418;-81
2023/04/10 01:21:28;;;;;;;18.70;10.73;;;5.10;99.90;;;;;;4942555;29;20115;-81
2023/04/10 01:31:37;;;;;;;18.67;11.32;;;5.10;99.90;;;;;;4941953;28;20043;-83
2023/04/10 01:41:53;;;;;;;18.63;11.60;;;5.10;99.90;;;;;;4939164;29;20111;-82
2023/04/10 01:54:35;;;;;;;18.10;11.00;;;5.10;99.90;;;;;;5003272;28;20049;-82
2023/04/10 01:57:02;;;;;;;18.13;11.27;;;5.10;99.90;;;;;;5002373;28;20023;-82
2023/04/10 02:03:36;;;;;;;19.23;11.30;;;5.10;99.90;;;;;;5005212;28;20085;-82
2023/04/10 02:13:05;;;;;;;18.85;11.13;;;5.10;99.90;;;;;;5004715;28;20026;-82
2023/04/10 02:23:16;;;;;;;19.20;11.43;;;5.00;99.90;;;;;;5005954;28;20053;-81
2023/04/10 02:40:07;;;;;;;21.42;12.43;;;5.10;99.90;;;;;;5004641;28;20034;-82
2023/04/10 02:43:00;;;;;;;18.70;10.93;;;5.10;99.90;;;;;;5005497;28;20053;-82
2023/04/10 02:45:25;;;;;;;20.33;11.23;;;5.10;99.90;;;;;;4991358;28;20023;-82
2023/04/10 02:47:51;;;;;;;18.90;12.00;;;5.00;99.90;;;;;;4990274;28;20029;-82
2023/04/10 02:50:57;;;;;;;20.00;12.30;;;5.00;99.90;;;;;;4991535;28;20054;-82
2023/04/10 03:00:49;;;;;;;19.15;11.82;;;4.90;99.90;;;;;;5006945;28;20529;-82
2023/04/10 03:14:19;;;;;;;21.58;11.98;;;4.80;99.90;;;;;;5005746;28;20409;-82
2023/04/10 03:23:44;;;;;;;21.15;11.63;;;4.70;99.90;;;;;;5003394;28;20037;-81
2023/04/10 03:26:10;;;;;;;19.58;12.43;;;4.70;99.90;;;;;;4984542;28;20495;-81
2023/04/10 03:29:26;;;;;;;21.35;12.93;;;4.70;99.90;;;;;;4986203;28;20018;-81
2023/04/10 03:31:51;;;;;;;21.90;12.25;;;4.60;99.90;;;;;;5003452;28;20038;-81
2023/04/10 03:34:17;;;;;;;19.90;11.68;;;4.60;99.90;;;;;;5003710;28;20034;-81
2023/04/10 03:36:43;;;;;;;19.85;10.98;;;4.60;99.90;;;;;;4986359;28;20028;-81
2023/04/10 03:39:09;;;;;;;19.90;12.20;;;4.50;99.90;;;;;;5003969;28;20035;-82
2023/04/10 03:41:35;;;;;;;20.92;11.82;;;4.50;99.90;;;;;;5003558;28;20080;-81
2023/04/10 03:47:32;;;;;;;22.45;13.05;;;4.50;99.90;;;;;;4998519;28;20390;-81
2023/04/10 03:57:00;;;;;;;19.98;11.70;;;4.20;99.90;;;;;;5006376;28;20026;-81
2023/04/10 04:02:51;;;;;;;20.55;11.63;;;4.10;99.90;;;;;;5001079;28;20060;-80
2023/04/10 04:05:17;;;;;;;20.17;12.20;;;4.10;99.90;;;;;;5000199;28;20478;-81
2023/04/10 04:07:42;;;;;;;19.63;11.40;;;4.10;99.90;;;;;;4981832;28;20030;-80
2023/04/10 04:10:08;;;;;;;20.52;11.68;;;4.00;99.90;;;;;;4999161;28;20045;-80
2023/04/10 04:12:34;;;;;;;22.85;11.73;;;4.00;99.90;;;;;;4998899;28;20030;-80
2023/04/10 04:25:38;;;;;;;19.05;11.30;;;3.90;99.90;;;;;;4999386;28;20077;-80
2023/04/10 04:38:25;;;;;;;19.23;11.52;;;3.90;99.90;;;;;;4998211;28;20044;-80
2023/04/10 04:44:20;;;;;;;19.88;11.93;;;4.00;99.90;;;;;;4997735;28;20037;-80
2023/04/10 04:50:50;;;;;;;19.92;10.82;;;4.10;99.90;;;;;;4997393;28;20085;-80
2023/04/10 04:54:02;;;;;;;16.55;10.10;;;4.30;99.90;;;;;;4979476;28;20026;-80
2023/04/10 04:56:28;;;;;;;17.90;11.13;;;4.40;99.90;;;;;;4997142;28;20038;-80
2023/04/10 04:58:53;;;;;;;23.88;12.52;;;4.50;99.90;;;;;;4979746;28;20383;-80
2023/04/10 05:01:48;;;;;;;17.73;10.98;;;4.60;99.90;;;;;;4979043;28;20129;-80
2023/04/10 05:07:41;;;;;;;19.17;9.77;;;4.80;99.90;;;;;;4996605;28;20081;-80
2023/04/10 05:27:25;;;;;;;14.85;8.85;;;5.30;99.90;;;;;;4995896;28;20106;-80
2023/04/10 05:40:07;;;;;;;16.02;9.95;;;5.60;99.90;;;;;;5000936;28;20030;-80
2023/04/10 05:46:00;;;;;;;14.05;10.15;;;5.80;99.90;;;;;;5006547;28;20021;-81
2023/04/10 05:51:49;;;;;;;13.52;9.05;;;6.10;99.90;;;;;;5002865;28;20045;-64
2023/04/10 05:54:15;;;;;;;15.27;9.55;;;6.40;99.90;;;;;;5006302;28;20038;-80
2023/04/10 05:56:41;;;;;;;15.68;9.45;;;6.70;99.90;;;;;;5006676;28;20038;-81
2023/04/10 05:59:07;;;;;;;13.00;9.00;;;7.20;99.90;;;;;;4990146;28;20026;-82
2023/04/10 06:11:58;;;;;;;10.20;7.97;;;8.30;99.90;;;;;;4999035;28;20038;-60
2023/04/10 06:14:23;;;;;;;14.82;8.15;;;8.50;99.90;;;;;;4988624;28;20046;-82
2023/04/10 06:16:49;;;;;;;10.52;7.65;;;8.70;99.90;;;;;;5013338;28;20401;-84
2023/04/10 06:19:15;;;;;;;10.05;7.90;;;8.90;99.90;;;;;;5005397;28;20027;-84
2023/04/10 06:21:40;;;;;;;11.45;8.48;;;9.00;99.90;;;;;;4993988;28;20026;-83
2023/04/10 06:24:06;;;;;;;9.73;7.82;;;9.00;99.90;;;;;;5003182;28;20037;-84
2023/04/10 06:26:32;;;;;;;11.85;7.93;;;9.10;99.90;;;;;;4990140;28;20037;-84
2023/04/10 06:28:58;;;;;;;10.27;7.97;;;9.10;99.90;;;;;;4997878;28;20475;-85
2023/04/10 06:31:23;;;;;;;10.07;7.82;;;9.10;99.90;;;;;;5009471;28;20081;-86
2023/04/10 06:33:49;;;;;;;12.63;8.30;;;9.00;99.90;;;;;;5931283;23;21382;-84
2023/04/10 06:47:23;;;;;;;;;;;9.00;99.90;;;;;;5218642;23;20054;-82
2023/04/10 06:49:49;;;;;;;12.25;8.38;;;8.90;99.90;;;;;;5014686;28;19913;-84
2023/04/10 06:52:16;;;;;;;12.82;8.98;;;8.90;99.90;;;;;;4996366;28;20029;-82
2023/04/10 06:54:42;;;;;;;12.45;9.23;;;;;;;;;;5122850;23;20077;-83
2023/04/10 06:57:08;;;;;;;14.40;9.07;;;8.30;99.90;;;;;;4995947;28;20022;-83
2023/04/10 06:59:34;;;;;;;12.27;9.25;;;9.20;99.90;;;;;;4998797;28;20030;-84
2023/04/10 07:02:01;;;;;;;12.85;9.32;;;8.20;99.90;;;;;;4998451;28;20033;-78
2023/04/10 07:09:39;;;;;;;16.25;10.48;;;7.80;99.90;;;;;;4974264;29;20062;-85
2023/04/10 07:12:05;;;;;;;15.85;10.90;;;7.70;99.90;;;;;;4979449;28;20022;-84
2023/04/10 07:14:32;;;;;;;16.73;11.48;;;7.70;99.90;;;;;;4958624;29;20027;-83
2023/04/10 07:16:58;;;;;;;16.25;10.50;;;7.60;99.90;;;;;;4979940;28;20027;-87
2023/04/10 07:24:31;;;;;;;18.50;10.88;;;7.70;99.90;;;;;;4967976;29;20484;-81
2023/04/10 07:26:57;;;;;;;16.42;11.57;;;8.00;99.90;;;;;;4950613;29;20038;-79
2023/04/10 07:29:23;;;;;;;18.40;12.73;;;8.10;99.90;;;;;;4967989;29;20376;-82
2023/04/10 07:31:48;;;;;;;18.33;11.35;;;8.20;99.90;;;;;;4970742;29;20027;-84
2023/04/10 07:34:14;;;;;;;20.05;12.63;;;8.30;99.90;;;;;;4955268;29;20090;-84
2023/04/10 07:36:40;;;;;;;18.75;11.85;;;8.10;99.90;;;;;;4952500;29;20036;-84
2023/04/10 07:39:05;;;;;;;19.63;12.75;;;8.20;99.90;;;;;;4954211;29;20038;-84
2023/04/10 07:41:31;;;;;;;21.60;12.48;;;8.20;99.90;;;;;;4954933;29;20024;-84
2023/04/10 07:43:56;;;;;;;20.85;13.63;;;8.20;99.90;;;;;;4971637;29;20452;-85
2023/04/10 07:46:22;;;;;;;19.38;13.63;;;8.30;99.90;;;;;;4971234;29;20448;-83
2023/04/10 07:48:48;;;;;;;21.73;13.25;;;8.30;99.90;;;;;;4954395;29;20023;-83
2023/04/10 07:51:14;;;;;;;19.33;13.20;;;8.60;99.90;;;;;;4955926;29;20039;-84
2023/04/10 07:53:40;;;;;;;18.20;13.27;;;9.10;99.90;;;;;;4976269;29;20032;-84
2023/04/10 07:56:07;;;;;;;20.05;13.50;;;9.50;99.90;;;;;;4961879;29;20032;-84
2023/04/10 07:58:32;;;;;;;17.13;12.23;;;9.80;99.90;;;;;;4950343;29;20028;-86
2023/04/10 08:00:58;;;;;;;19.58;13.88;;;10.30;99.90;;;;;;4958574;29;20032;-88
2023/04/10 08:03:25;;;;;;;18.25;12.85;;;10.80;99.90;;;;;;4940580;29;20054;-87
2023/04/10 08:05:50;;;;;;;16.02;12.10;;;11.50;99.90;;;;;;4957346;29;20039;-87
2023/04/10 08:08:16;;;;;;;19.27;13.25;;;12.10;99.90;;;;;;4940486;29;20031;-87
2023/04/10 08:10:42;;;;;;;16.55;12.73;;;12.40;99.90;;;;;;4940541;29;20078;-87
2023/04/10 08:13:08;;;;;;;16.45;11.88;;;13.00;99.90;;;;;;4940253;29;20527;-87
2023/04/10 08:15:34;;;;;;;15.68;12.13;;;13.00;99.90;;;;;;4940499;29;20038;-88
2023/04/10 08:17:59;;;;;;;15.50;12.00;;;13.30;99.90;;;;;;4940228;29;20034;-87
2023/04/10 08:20:26;;;;;;;16.77;11.95;;;13.40;99.80;;;;;;4957114;29;20039;-90
2023/04/10 08:22:52;;;;;;;14.75;11.48;;;13.50;99.90;;;;;;4942487;29;20093;-85
2023/04/10 08:25:18;;;;;;;14.65;11.35;;;13.40;99.00;;;;;;4957013;29;20031;-84
2023/04/10 08:27:43;;;;;;;16.00;12.38;;;13.00;99.80;;;;;;4956810;29;20027;-83
2023/04/10 08:30:09;;;;;;;17.45;12.80;;;12.80;99.60;;;;;;4955796;29;20043;-89
2023/04/10 08:32:35;;;;;;;17.13;13.15;;;13.00;99.90;;;;;;4956578;29;20031;-81
2023/04/10 08:35:01;;;;;;;18.20;13.18;;;12.80;99.50;;;;;;4955281;29;20490;-81
2023/04/10 08:37:26;;;;;;;17.33;13.48;;;12.60;99.90;;;;;;4956871;29;20027;-86
2023/04/10 08:39:52;;;;;;;19.27;14.85;;;12.30;99.90;;;;;;4956120;29;20106;-86
2023/04/10 08:42:18;;;;;;;19.73;13.73;;;12.40;99.90;;;;;;4955325;29;20027;-63
2023/04/10 08:44:44;;;;;;;18.65;13.98;;;13.40;99.90;;;;;;4956326;29;20106;-63
2023/04/10 08:47:12;;;;;;;16.40;13.15;;;13.90;97.70;;;;;;4956041;28;20035;-62
2023/04/10 08:50:02;;;;;;;17.30;13.60;;;13.60;97.50;;;;;;4954810;29;20127;-63
2023/04/10 08:52:30;;;;;;;18.63;15.07;;;11.80;97.40;;;;;;4956056;29;20031;-61
2023/04/10 08:54:58;;;;;;;16.83;13.68;;;13.60;97.30;;;;;;4955915;29;20489;-61
2023/04/10 08:57:25;;;;;;;18.60;14.25;;;13.30;97.80;;;;;;4955870;29;20039;-61
2023/04/10 08:59:51;;;;;;;17.83;13.82;;;12.90;98.80;;;;;;4956009;29;20038;-60
2023/04/10 09:02:18;;;;;;;19.92;15.15;;;13.10;99.60;;;;;;4954640;29;20034;-60
2023/04/10 09:04:48;;;;;;;21.83;15.27;;;12.70;99.10;;;;;;4956012;29;20345;-61
2023/04/10 09:07:15;;;;;;;20.80;15.60;;;12.40;99.90;;;;;;4955755;28;20081;-75
2023/04/10 09:09:41;;;;;;;22.25;16.38;;;12.00;99.90;;;;;;4958974;29;20035;-78
2023/04/10 09:12:06;;;;;;;20.50;16.15;;;11.90;99.90;;;;;;4958068;29;20031;-78
2023/04/10 09:14:34;;;;;;;22.33;16.13;;;12.20;99.90;;;;;;4958856;28;20486;-80
2023/04/10 09:17:13;;;;;;;22.85;16.80;;;12.20;99.90;;;;;;4958487;29;20033;-80
2023/04/10 09:19:39;;;;;;;22.40;15.80;;;11.90;99.90;;;;;;4959509;29;20074;-78
2023/04/10 09:22:05;;;;;;;22.40;15.40;;;11.90;99.90;;;;;;4955836;29;20027;-79
2023/04/10 09:24:36;;;;;;;21.33;15.15;;;12.20;99.90;;;;;;4956171;29;20070;-76
2023/04/10 09:27:01;;;;;;;22.15;15.75;;;12.30;99.90;;;;;;4957805;29;20031;-78
2023/04/10 09:29:44;;;;;;;23.25;16.67;;;11.80;99.90;;;;;;4959923;29;20093;-77
2023/04/10 09:32:11;;;;;;;21.55;15.68;;;12.00;99.90;;;;;;4956473;29;20110;-77
2023/04/10 09:34:58;;;;;;;21.90;16.25;;;13.20;99.90;;;;;;4955814;29;20032;-77
2023/04/10 09:37:31;;;;;;;21.33;16.00;;;14.20;97.20;;;;;;4938291;29;20159;-78
2023/04/10 09:39:56;;;;;;;19.10;15.52;;;15.30;95.70;;;;;;4938633;29;20387;-78
2023/04/10 09:42:34;;;;;;;21.08;16.33;;;16.00;91.40;;;;;;4955506;29;20032;-76
2023/04/10 09:45:00;;;;;;;19.42;15.52;;;15.70;88.40;;;;;;4938319;29;20031;-77
2023/04/10 09:47:27;;;;;;;19.90;16.10;;;15.60;90.00;;;;;;4938561;29;20027;-77
2023/04/10 09:49:54;;;;;;;20.95;16.67;;;15.00;88.90;;;;;;4938249;29;20035;-77
2023/04/10 09:52:20;;;;;;;20.65;16.52;;;14.90;89.80;;;;;;4938375;29;20028;-76
2023/04/10 09:54:46;;;;;;;20.30;16.23;;;14.70;90.40;;;;;;4938298;29;20034;-77
2023/04/10 09:57:18;;;;;;;19.02;15.23;;;15.00;90.70;;;;;;4938159;29;20078;-76
2023/04/10 09:59:51;;;;;;;20.83;15.95;;;15.30;89.30;;;;;;4938188;29;20035;-76
2023/04/10 10:02:19;;;;;;;20.55;16.10;;;15.40;87.10;;;;;;4937965;29;20035;-76
2023/04/10 10:04:46;;;;;;;19.67;15.77;;;15.20;86.50;;;;;;4938146;29;20067;-77
2023/04/10 10:07:16;;;;;;;18.50;15.18;;;15.50;87.20;;;;;;4938010;29;20428;-77
2023/04/10 10:09:43;;;;;;;20.45;14.85;;;15.80;85.00;;;;;;4938570;29;20035;-77
2023/04/10 10:12:11;;;;;;;19.23;15.55;;;15.60;85.60;;;;;;4938224;29;20031;-77
2023/04/10 10:14:59;;;;;;;20.80;16.20;;;15.90;85.50;;;;;;4955023;29;20448;-77
2023/04/10 10:17:33;;;;;;;18.17;14.88;;;16.10;82.40;;;;;;4955331;29;20423;-76
2023/04/10 10:20:07;;;;;;;19.33;15.30;;;16.40;83.30;;;;;;4958775;28;20035;-77
2023/04/10 10:22:34;;;;;;;19.23;15.73;;;16.80;81.10;;;;;;4941723;29;20047;-77
2023/04/10 10:25:01;;;;;;;19.23;15.82;;;17.20;78.40;;;;;;4958935;28;20071;-77
2023/04/10 10:27:31;;;;;;;19.33;15.20;;;17.40;76.00;;;;;;4958456;29;20023;-76
2023/04/10 10:29:59;;;;;;;19.10;15.77;;;17.40;74.50;;;;;;4958419;28;20570;-77
2023/04/10 10:32:26;;;;;;;20.27;15.82;;;17.10;74.80;;;;;;4958645;29;20035;-76
2023/04/10 10:34:53;;;;;;;18.05;14.82;;;17.10;74.20;;;;;;4958334;29;20027;-76
2023/04/10 10:37:20;;;;;;;19.40;15.73;;;17.10;73.80;;;;;;4958711;29;20058;-76
2023/04/10 10:39:55;;;;;;;20.38;16.08;;;17.20;73.90;;;;;;4957276;29;20423;-76
2023/04/10 10:42:49;;;;;;;20.50;16.42;;;17.30;72.30;;;;;;4957370;29;20074;-76
2023/04/10 10:45:25;;;;;;;21.15;15.75;;;17.60;70.50;;;;;;4957574;29;20027;-76
2023/04/10 10:47:53;;;;;;;20.90;16.05;;;17.70;70.70;;;;;;4958492;29;20023;-76
2023/04/10 10:50:20;;;;;;;18.42;16.00;;;17.90;70.30;;;;;;4956978;29;20062;-76
2023/04/10 10:52:52;;;;;;;19.58;15.80;;;18.00;69.00;;;;;;4957139;29;20045;-76
2023/04/10 10:55:21;;;;;;;18.25;15.90;;;17.90;69.30;;;;;;4958810;29;20134;-76
2023/04/10 10:57:52;;;;;;;20.90;15.82;;;18.00;69.80;;;;;;4956931;29;20468;-76
2023/04/10 11:00:25;;;;;;;17.02;14.30;;;18.60;67.40;;;;;;4958001;29;20036;-76
2023/04/10 11:03:06;;;;;;;19.33;15.93;;;18.80;66.00;;;;;;4956613;29;20034;-76
2023/04/10 11:05:54;;;;;;;17.35;15.13;;;19.30;63.10;;;;;;4957929;29;20031;-76
2023/04/10 11:08:46;;;;;;;17.27;15.30;;;19.50;62.60;;;;;;4957860;29;20028;-76
2023/04/10 11:11:20;;;;;;;18.40;15.27;;;20.30;61.40;;;;;;4956882;29;20062;-76
2023/04/10 11:13:50;;;;;;;17.42;15.50;;;20.70;56.90;;;;;;4957761;29;20042;-64
2023/04/10 11:16:16;;;;;;;17.55;15.13;;;20.50;58.90;;;;;;4957661;29;20393;-63
2023/04/10 11:18:45;;;;;;;18.75;16.73;;;20.60;59.50;;;;;;4957695;29;20102;-74
2023/04/10 11:21:16;;;;;;;18.55;15.68;;;20.80;56.00;;;;;;4957247;29;20027;-75
2023/04/10 11:23:54;;;;;;;17.92;15.80;;;20.50;57.10;;;;;;4956149;29;20086;-74
2023/04/10 11:26:32;;;;;;;17.30;15.38;;;20.50;55.10;;;;;;4957567;29;20035;-74
2023/04/10 11:28:59;;;;;;;16.05;14.30;;;20.30;54.40;;;;;;4957512;29;20027;-74
2023/04/10 11:31:25;;;;;;;16.67;14.77;;;20.50;55.50;;;;;;4956583;28;20395;-75
2023/04/10 11:34:05;;;;;;;16.77;15.05;;;20.80;54.00;;;;;;4956323;29;20039;-74
2023/04/10 11:36:37;;;;;;;18.27;15.88;;;21.10;54.20;;;;;;4956053;29;20109;-75
2023/04/10 11:39:07;;;;;;;17.70;15.38;;;21.00;53.00;;;;;;4957383;29;20055;-75
2023/04/10 11:41:34;;;;;;;17.52;15.05;;;20.30;53.60;;;;;;4956039;29;20494;-75
2023/04/10 11:44:01;;;;;;;18.23;15.43;;;19.60;56.00;;;;;;4956964;29;20023;-75
2023/04/10 11:46:27;;;;;;;17.77;13.98;;;19.30;56.20;;;;;;4957019;29;20548;-75
2023/04/10 11:49:00;;;;;;;14.65;13.05;;;20.00;55.20;;;;;;4956026;29;20031;-75
2023/04/10 11:51:27;;;;;;;22.00;13.93;;;20.10;52.80;;;;;;4955995;29;20097;-75
2023/04/10 11:54:13;;;;;;;16.65;14.70;;;20.00;53.60;;;;;;4956994;29;20031;-73
2023/04/10 11:57:00;;;;;;;14.90;13.23;;;20.10;52.60;;;;;;4957029;28;20192;-75
2023/04/10 11:59:27;;;;;;;16.55;14.73;;;20.10;52.10;;;;;;4947082;28;20114;-73
2023/04/10 12:02:06;;;;;;;16.88;15.00;;;21.10;52.80;;;;;;4955626;29;20535;-73
2023/04/10 12:04:33;;;;;;;16.23;14.52;;;22.10;51.00;;;;;;4955685;29;20024;-73
2023/04/10 12:06:58;;;;;;;17.45;15.30;;;22.20;49.80;;;;;;4957028;29;20162;-73
2023/04/10 12:09:25;;;;;;;15.35;13.75;;;21.90;48.10;;;;;;4957119;29;20102;-76
2023/04/10 12:11:52;;;;;;;15.60;13.73;;;21.20;49.30;;;;;;4957167;29;20023;-75
2023/04/10 12:14:18;;;;;;;15.70;13.15;;;19.80;50.90;;;;;;4964754;28;20161;-75
2023/04/10 12:16:45;;;;;;;15.05;12.52;;;19.70;50.30;;;;;;4960107;28;20054;-75
2023/04/10 12:19:11;;;;;;;12.50;11.20;;;20.00;51.00;;;;;;4974516;28;20034;-75
2023/04/10 12:21:40;;;;;;;17.23;12.32;;;20.50;49.10;;;;;;4967266;28;20027;-75
2023/04/10 12:24:05;;;;;;;15.00;13.00;;;21.70;48.60;;;;;;4954724;29;20150;-75
2023/04/10 12:26:31;;;;;;;15.13;12.27;;;21.00;48.80;;;;;;4955254;29;20122;-75
2023/04/10 12:28:57;;;;;;;15.77;12.32;;;20.30;50.20;;;;;;4956432;29;20482;-75
2023/04/10 12:31:34;;;;;;;15.80;13.85;;;19.90;50.30;;;;;;4973128;28;20462;-75
2023/04/10 12:34:01;;;;;;;13.93;12.30;;;19.20;52.00;;;;;;4968143;28;20063;-75
2023/04/10 12:36:29;;;;;;;15.07;12.85;;;19.50;52.20;;;;;;4954990;29;20484;-76
2023/04/10 12:39:00;;;;;;;15.32;13.00;;;20.40;51.10;;;;;;4955002;29;20031;-76
2023/04/10 12:41:30;;;;;;;14.50;13.00;;;20.60;51.10;;;;;;4956179;28;20043;-76
2023/04/10 12:44:10;;;;;;;15.25;13.27;;;21.20;49.80;;;;;;4955612;29;20031;-74
2023/04/10 12:46:36;;;;;;;16.80;13.60;;;22.00;46.60;;;;;;4955135;29;20499;-74
2023/04/10 12:49:11;;;;;;;16.25;13.73;;;22.00;47.10;;;;;;4956070;29;20034;-74
2023/04/10 12:51:49;;;;;;;15.45;13.77;;;22.90;45.60;;;;;;4956039;29;20077;-73
2023/04/10 12:54:28;;;;;;;15.98;14.25;;;22.90;45.30;;;;;;4954743;29;20121;-77
2023/04/10 12:56:53;;;;;;;16.13;14.13;;;22.20;45.30;;;;;;4954703;28;20031;-74
2023/04/10 12:59:19;;;;;;;15.73;13.63;;;20.80;48.00;;;;;;4954666;29;20032;-74
2023/04/10 13:01:45;;;;;;;16.05;13.20;;;20.10;49.30;;;;;;4955873;29;20121;-73
2023/04/10 13:04:11;;;;;;;15.30;13.15;;;19.40;51.10;;;;;;4955937;29;20564;-74
2023/04/10 13:06:44;;;;;;;16.73;14.40;;;19.80;51.20;;;;;;4955875;29;20058;-79
2023/04/10 13:09:11;;;;;;;16.70;14.65;;;19.80;49.90;;;;;;4955500;29;20034;-78
2023/04/10 13:11:37;;;;;;;14.52;13.00;;;18.80;50.60;;;;;;4954631;29;20498;-78
2023/04/10 13:14:02;;;;;;;18.55;13.10;;;17.80;53.80;;;;;;4955824;29;20050;-75
2023/04/10 13:16:28;;;;;;;15.88;13.20;;;17.30;55.10;;;;;;4955714;29;20038;-75
2023/04/10 13:18:53;;;;;;;17.02;12.45;;;17.70;55.20;;;;;;4955985;29;20055;-75
2023/04/10 13:21:21;;;;;;;16.23;12.35;;;18.70;53.00;;;;;;4955449;29;20070;-75
2023/04/10 13:23:48;;;;;;;13.75;11.95;;;19.70;49.80;;;;;;4955225;29;20063;-75
2023/04/10 13:26:18;;;;;;;15.50;13.07;;;21.00;48.10;;;;;;4955642;29;20122;-76
2023/04/10 13:28:50;;;;;;;13.57;12.02;;;21.80;46.40;;;;;;4956007;29;20126;-75
2023/04/10 13:31:15;;;;;;;14.15;12.65;;;22.50;45.70;;;;;;4955614;29;20077;-75
2023/04/10 13:33:46;;;;;;;16.23;12.95;;;22.00;44.60;;;;;;4938550;29;20063;-75
2023/04/10 13:36:15;;;;;;;14.27;12.88;;;21.90;45.20;;;;;;4938670;29;20027;-76
2023/04/10 13:38:41;;;;;;;17.05;13.27;;;21.50;44.80;;;;;;4938368;29;20118;-76
2023/04/10 13:41:07;;;;;;;15.65;13.32;;;20.10;46.00;;;;;;4938591;29;20476;-76
2023/04/10 13:43:32;;;;;;;15.43;13.25;;;19.10;48.40;;;;;;4938545;29;20034;-76
2023/04/10 13:45:58;;;;;;;14.52;12.85;;;18.70;49.70;;;;;;4938381;29;20455;-76
2023/04/10 13:48:24;;;;;;;14.13;12.05;;;19.20;48.90;;;;;;4938362;29;20464;-76
2023/04/10 13:50:49;;;;;;;14.20;12.70;;;20.10;48.30;;;;;;4938123;29;20109;-76
2023/04/10 13:53:15;;;;;;;14.02;12.20;;;20.80;46.30;;;;;;4938890;29;20036;-76
2023/04/10 13:55:42;;;;;;;14.90;11.93;;;21.20;45.00;;;;;;4942613;29;20365;-76
2023/04/10 13:58:12;;;;;;;12.20;10.95;;;21.20;44.40;;;;;;4941954;29;20031;-76
2023/04/10 14:00:38;;;;;;;13.27;11.85;;;20.50;44.40;;;;;;4942008;29;20090;-76
2023/04/10 14:03:04;;;;;;;12.02;10.82;;;19.30;45.50;;;;;;4941887;29;20031;-76
2023/04/10 14:05:30;;;;;;;14.00;11.95;;;19.40;46.50;;;;;;4959252;29;20030;-76
2023/04/10 14:07:56;;;;;;;14.13;11.40;;;19.90;47.20;;;;;;4958952;29;20085;-76
2023/04/10 14:10:24;;;;;;;13.85;11.82;;;19.90;47.60;;;;;;4941737;29;20031;-76
2023/04/10 14:12:50;;;;;;;14.05;11.55;;;20.10;46.70;;;;;;4941745;29;20069;-75
2023/04/10 14:15:16;;;;;;;13.98;11.50;;;19.70;45.80;;;;;;4941620;29;20066;-76
2023/04/10 14:17:41;;;;;;;13.43;10.63;;;18.70;46.90;;;;;;4958769;29;20104;-75
2023/04/10 14:20:10;;;;;;;13.32;10.80;;;18.10;49.10;;;;;;4941497;29;20388;-76
2023/04/10 14:22:36;;;;;;;12.43;10.85;;;17.70;51.00;;;;;;4958592;28;20550;-76
2023/04/10 14:25:01;;;;;;;13.90;11.20;;;17.60;50.50;;;;;;4958498;29;20055;-76
2023/04/10 14:27:27;;;;;;;11.38;10.18;;;17.50;51.00;;;;;;4941117;29;20058;-76
2023/04/10 14:29:54;;;;;;;12.82;11.02;;;17.30;51.10;;;;;;4958808;29;20035;-76
2023/04/10 14:32:19;;;;;;;11.98;10.32;;;17.50;51.70;;;;;;4941347;29;20032;-75
2023/04/10 14:34:45;;;;;;;14.25;10.85;;;17.50;50.80;;;;;;4941040;29;20526;-76
2023/04/10 14:37:11;;;;;;;14.15;10.15;;;17.70;51.70;;;;;;4958213;29;20032;-76
2023/04/10 14:39:36;;;;;;;12.07;10.73;;;18.10;50.60;;;;;;4958400;29;20035;-76
2023/04/10 14:42:02;;;;;;;12.50;10.90;;;19.30;48.50;;;;;;4941314;29;20030;-76
2023/04/10 14:44:28;;;;;;;15.32;10.68;;;19.90;46.60;;;;;;4941231;29;20479;-76
2023/04/10 14:46:54;;;;;;;12.30;10.75;;;20.70;44.70;;;;;;4941111;29;20027;-76
2023/04/10 14:49:19;;;;;;;14.48;11.02;;;21.00;44.70;;;;;;4958210;29;20045;-76
2023/04/10 14:51:47;;;;;;;13.60;11.02;;;20.50;45.50;;;;;;4958255;29;20086;-76
2023/04/10 14:54:12;;;;;;;12.52;11.15;;;19.60;46.10;;;;;;4940893;29;20412;-76
2023/04/10 14:56:38;;;;;;;13.75;11.93;;;19.80;46.60;;;;;;4940757;29;20038;-76
2023/04/10 14:59:05;;;;;;;13.50;11.90;;;20.20;47.20;;;;;;4958201;29;20027;-76
2023/04/10 15:01:31;;;;;;;13.18;11.70;;;20.50;46.00;;;;;;4940794;29;20435;-75
2023/04/10 15:03:57;;;;;;;12.63;10.77;;;20.90;45.20;;;;;;4940461;29;20024;-77
2023/04/10 15:06:22;;;;;;;12.93;10.40;;;21.00;45.20;;;;;;4939359;29;20027;-76
2023/04/10 15:08:48;;;;;;;12.40;11.10;;;21.40;44.40;;;;;;4958113;29;20039;-75
2023/04/10 15:11:13;;;;;;;12.68;10.98;;;21.40;43.40;;;;;;4940502;29;20035;-63
2023/04/10 15:13:39;;;;;;;11.55;10.35;;;21.20;44.20;;;;;;4957805;29;20035;-63
2023/04/10 15:16:06;;;;;;;14.38;11.25;;;21.40;44.20;;;;;;4940916;29;20097;-64
2023/04/10 15:18:32;;;;;;;12.30;10.55;;;21.80;43.00;;;;;;4957750;29;20106;-63
2023/04/10 15:20:58;;;;;;;11.93;10.65;;;21.90;43.10;;;;;;4957428;29;20444;-63
2023/04/10 15:23:24;;;;;;;11.57;10.38;;;21.70;42.60;;;;;;4957700;29;20054;-64
2023/04/10 15:25:50;;;;;;;12.13;10.82;;;21.40;42.80;;;;;;4957526;29;20074;-64
2023/04/10 15:28:15;;;;;;;12.38;10.90;;;21.40;43.20;;;;;;4957570;29;20071;-64
2023/04/10 15:30:43;;;;;;;12.85;10.27;;;21.40;43.10;;;;;;4957423;29;20118;-64
2023/04/10 15:33:09;;;;;;;11.57;10.38;;;21.30;43.10;;;;;;4957660;29;20028;-65
2023/04/10 15:35:35;;;;;;;11.77;10.18;;;21.20;42.60;;;;;;4957375;29;20034;-65
2023/04/10 15:38:02;;;;;;;11.98;10.75;;;21.40;43.00;;;;;;4957627;29;20036;-65
2023/04/10 15:40:28;;;;;;;13.55;10.60;;;21.30;42.80;;;;;;4957267;29;20035;-64
2023/04/10 15:42:53;;;;;;;11.77;9.88;;;20.70;43.50;;;;;;4957193;29;20027;-64
2023/04/10 15:45:19;;;;;;;13.10;11.45;;;20.30;44.00;;;;;;4957730;29;20070;-86
2023/04/10 15:47:46;;;;;;;12.80;11.18;;;19.70;45.10;;;;;;4957610;29;20034;-83
2023/04/10 15:50:12;;;;;;;12.98;11.23;;;19.10;46.00;;;;;;4940105;29;20027;-85
2023/04/10 15:52:38;;;;;;;13.00;11.40;;;18.40;47.70;;;;;;4957021;29;20418;-83
2023/04/10 15:55:04;;;;;;;12.02;10.55;;;18.40;48.70;;;;;;4940041;29;20031;-83
2023/04/10 15:57:30;;;;;;;13.75;11.35;;;18.40;48.60;;;;;;4957136;29;20106;-84
2023/04/10 15:59:58;;;;;;;13.93;11.68;;;18.60;48.40;;;;;;4939936;29;20127;-80
2023/04/10 16:02:23;;;;;;;13.68;11.02;;;18.60;48.00;;;;;;4939945;29;20420;-81
2023/04/10 16:04:49;;;;;;;13.57;10.77;;;18.50;48.80;;;;;;4956997;29;20094;-80
2023/04/10 16:07:15;;;;;;;11.75;10.40;;;18.60;48.60;;;;;;4956646;29;20106;-78
2023/04/10 16:09:40;;;;;;;13.32;10.15;;;18.70;48.10;;;;;;4939599;29;20126;-80
2023/04/10 16:12:06;;;;;;;13.52;10.50;;;18.50;48.90;;;;;;4934933;29;20039;-81
2023/04/10 16:14:32;;;;;;;13.32;11.48;;;18.30;48.50;;;;;;4948402;28;20030;-82
2023/04/10 16:16:57;;;;;;;14.35;11.85;;;18.00;49.00;;;;;;4960842;28;20031;-80
2023/04/10 16:19:23;;;;;;;14.15;10.95;;;17.70;49.20;;;;;;4946197;28;20037;-81
2023/04/10 16:21:49;;;;;;;13.90;11.45;;;17.60;50.30;;;;;;4939500;29;20459;-80
2023/04/10 16:24:15;;;;;;;14.45;11.45;;;17.60;50.70;;;;;;4955449;29;20078;-80
2023/04/10 16:26:41;;;;;;;16.77;11.93;;;17.50;50.30;;;;;;4939410;29;20118;-76
2023/04/10 16:29:06;;;;;;;18.08;11.02;;;17.40;50.70;;;;;;4963394;28;20460;-79
2023/04/10 16:31:32;;;;;;;13.00;11.07;;;17.30;51.80;;;;;;4939221;29;20031;-79
2023/04/10 16:33:58;;;;;;;15.02;11.57;;;17.10;52.10;;;;;;4955105;29;20030;-80
2023/04/10 16:36:23;;;;;;;14.13;11.55;;;16.90;52.50;;;;;;4955326;29;20027;-79
2023/04/10 16:38:49;;;;;;;16.25;12.82;;;16.80;52.80;;;;;;4954961;29;20023;-79
2023/04/10 16:41:17;;;;;;;15.45;12.82;;;16.50;53.60;;;;;;4956197;29;20078;-80
2023/04/10 16:43:43;;;;;;;16.10;12.63;;;16.50;54.10;;;;;;4957477;28;20404;-80
2023/04/10 16:46:09;;;;;;;14.95;12.70;;;16.30;53.80;;;;;;4938836;29;20066;-80
2023/04/10 16:48:35;;;;;;;17.60;13.52;;;15.90;54.80;;;;;;4938687;29;20079;-80
2023/04/10 16:51:04;;;;;;;14.90;11.93;;;15.90;55.50;;;;;;4956170;29;20039;-83
2023/04/10 16:53:31;;;;;;;16.80;12.73;;;15.80;56.70;;;;;;4938907;29;20031;-83